sensor_id;sensor_type;location;lat;lon;timestamp;P1;durP1;ratioP1;P2;durP2;ratioP2
85218;SDS011;75606;40.152;44.490;2024-01-16T00:00:06;36.50;;;17.48;;
85218;SDS011;75606;40.152;44.490;2024-01-16T00:02:34;35.20;;;16.83;;
85218;SDS011;75606;40.152;44.490;2024-01-16T00:04:59;31.67;;;17.15;;
85218;SDS011;75606;40.152;44.490;2024-01-16T00:07:25;36.33;;;18.17;;
85218;SDS011;75606;40.152;44.490;2024-01-16T00:09:51;37.97;;;18.00;;
85218;SDS011;75606;40.152;44.490;2024-01-16T00:12:18;43.03;;;19.83;;
85218;SDS011;75606;40.152;44.490;2024-01-16T00:14:44;36.28;;;16.60;;
85218;SDS011;75606;40.152;44.490;2024-01-16T00:17:10;30.65;;;14.85;;
85218;SDS011;75606;40.152;44.490;2024-01-16T00:19:36;38.78;;;18.20;;
85218;SDS011;75606;40.152;44.490;2024-01-16T00:22:02;34.75;;;15.73;;
85218;SDS011;75606;40.152;44.490;2024-01-16T00:24:29;34.35;;;16.33;;
85218;SDS011;75606;40.152;44.490;2024-01-16T00:26:56;30.25;;;13.88;;
85218;SDS011;75606;40.152;44.490;2024-01-16T00:29:21;28.33;;;14.60;;
85218;SDS011;75606;40.152;44.490;2024-01-16T00:31:47;35.53;;;15.57;;
85218;SDS011;75606;40.152;44.490;2024-01-16T00:34:13;30.90;;;14.13;;
85218;SDS011;75606;40.152;44.490;2024-01-16T00:36:39;29.60;;;12.82;;
85218;SDS011;75606;40.152;44.490;2024-01-16T00:39:04;28.10;;;13.30;;
85218;SDS011;75606;40.152;44.490;2024-01-16T00:41:30;27.80;;;12.73;;
85218;SDS011;75606;40.152;44.490;2024-01-16T00:43:55;35.95;;;16.52;;
85218;SDS011;75606;40.152;44.490;2024-01-16T00:46:21;30.58;;;14.07;;
85218;SDS011;75606;40.152;44.490;2024-01-16T00:48:47;27.98;;;12.25;;
85218;SDS011;75606;40.152;44.490;2024-01-16T00:51:13;31.85;;;14.52;;
85218;SDS011;75606;40.152;44.490;2024-01-16T00:53:42;28.02;;;12.50;;
85218;SDS011;75606;40.152;44.490;2024-01-16T00:58:33;22.65;;;10.85;;
85218;SDS011;75606;40.152;44.490;2024-01-16T01:00:59;28.20;;;12.48;;
85218;SDS011;75606;40.152;44.490;2024-01-16T01:03:25;30.83;;;13.90;;
85218;SDS011;75606;40.152;44.490;2024-01-16T01:05:50;22.58;;;11.05;;
85218;SDS011;75606;40.152;44.490;2024-01-16T01:08:16;24.23;;;12.73;;
85218;SDS011;75606;40.152;44.490;2024-01-16T01:10:42;24.98;;;12.13;;
85218;SDS011;75606;40.152;44.490;2024-01-16T01:13:08;21.63;;;10.70;;
85218;SDS011;75606;40.152;44.490;2024-01-16T01:15:33;26.85;;;13.30;;
85218;SDS011;75606;40.152;44.490;2024-01-16T01:17:59;31.00;;;13.68;;
85218;SDS011;75606;40.152;44.490;2024-01-16T01:20:25;30.70;;;13.50;;
85218;SDS011;75606;40.152;44.490;2024-01-16T01:22:50;34.45;;;17.65;;
85218;SDS011;75606;40.152;44.490;2024-01-16T01:25:16;34.28;;;15.05;;
85218;SDS011;75606;40.152;44.490;2024-01-16T01:27:42;30.13;;;14.40;;
85218;SDS011;75606;40.152;44.490;2024-01-16T01:30:08;22.70;;;12.05;;
85218;SDS011;75606;40.152;44.490;2024-01-16T01:32:37;44.85;;;19.23;;
85218;SDS011;75606;40.152;44.490;2024-01-16T01:35:04;39.65;;;20.02;;
85218;SDS011;75606;40.152;44.490;2024-01-16T01:37:30;30.92;;;14.60;;
85218;SDS011;75606;40.152;44.490;2024-01-16T01:39:56;33.00;;;15.95;;
85218;SDS011;75606;40.152;44.490;2024-01-16T01:42:21;46.75;;;21.50;;
85218;SDS011;75606;40.152;44.490;2024-01-16T01:44:48;30.55;;;15.23;;
85218;SDS011;75606;40.152;44.490;2024-01-16T01:47:13;39.05;;;17.77;;
85218;SDS011;75606;40.152;44.490;2024-01-16T01:49:39;34.45;;;14.20;;
85218;SDS011;75606;40.152;44.490;2024-01-16T01:52:06;38.63;;;17.40;;
85218;SDS011;75606;40.152;44.490;2024-01-16T01:54:32;41.83;;;19.77;;
85218;SDS011;75606;40.152;44.490;2024-01-16T01:57:00;45.47;;;18.85;;
85218;SDS011;75606;40.152;44.490;2024-01-16T01:59:26;50.75;;;21.25;;
85218;SDS011;75606;40.152;44.490;2024-01-16T02:01:52;50.50;;;19.33;;
85218;SDS011;75606;40.152;44.490;2024-01-16T02:04:19;42.30;;;19.00;;
85218;SDS011;75606;40.152;44.490;2024-01-16T02:06:45;48.33;;;22.60;;
85218;SDS011;75606;40.152;44.490;2024-01-16T02:09:11;41.03;;;17.63;;
85218;SDS011;75606;40.152;44.490;2024-01-16T02:11:47;47.47;;;22.50;;
85218;SDS011;75606;40.152;44.490;2024-01-16T02:14:13;46.25;;;21.10;;
85218;SDS011;75606;40.152;44.490;2024-01-16T02:16:42;41.78;;;16.45;;
85218;SDS011;75606;40.152;44.490;2024-01-16T02:19:11;34.83;;;14.93;;
85218;SDS011;75606;40.152;44.490;2024-01-16T02:21:46;32.63;;;14.55;;
85218;SDS011;75606;40.152;44.490;2024-01-16T02:24:17;28.10;;;12.77;;
85218;SDS011;75606;40.152;44.490;2024-01-16T02:26:43;35.97;;;14.23;;
85218;SDS011;75606;40.152;44.490;2024-01-16T02:29:10;27.70;;;11.85;;
85218;SDS011;75606;40.152;44.490;2024-01-16T02:31:36;33.42;;;13.10;;
85218;SDS011;75606;40.152;44.490;2024-01-16T02:34:02;28.95;;;11.73;;
85218;SDS011;75606;40.152;44.490;2024-01-16T02:36:31;27.25;;;11.75;;
85218;SDS011;75606;40.152;44.490;2024-01-16T02:38:57;36.80;;;14.73;;
85218;SDS011;75606;40.152;44.490;2024-01-16T02:41:23;30.50;;;14.00;;
85218;SDS011;75606;40.152;44.490;2024-01-16T02:43:48;35.13;;;13.13;;
85218;SDS011;75606;40.152;44.490;2024-01-16T02:46:14;40.80;;;17.95;;
85218;SDS011;75606;40.152;44.490;2024-01-16T02:48:40;38.08;;;13.85;;
85218;SDS011;75606;40.152;44.490;2024-01-16T02:51:07;49.70;;;18.65;;
85218;SDS011;75606;40.152;44.490;2024-01-16T02:53:33;34.80;;;14.48;;
85218;SDS011;75606;40.152;44.490;2024-01-16T02:55:59;29.20;;;12.57;;
85218;SDS011;75606;40.152;44.490;2024-01-16T02:58:28;39.92;;;17.92;;
85218;SDS011;75606;40.152;44.490;2024-01-16T03:00:56;28.92;;;13.63;;
85218;SDS011;75606;40.152;44.490;2024-01-16T03:03:22;31.02;;;13.77;;
85218;SDS011;75606;40.152;44.490;2024-01-16T03:05:48;37.05;;;15.73;;
85218;SDS011;75606;40.152;44.490;2024-01-16T03:08:14;33.90;;;14.93;;
85218;SDS011;75606;40.152;44.490;2024-01-16T03:10:39;35.50;;;16.15;;
85218;SDS011;75606;40.152;44.490;2024-01-16T03:13:05;46.60;;;21.73;;
85218;SDS011;75606;40.152;44.490;2024-01-16T03:15:31;33.97;;;15.13;;
85218;SDS011;75606;40.152;44.490;2024-01-16T03:17:59;32.83;;;13.80;;
85218;SDS011;75606;40.152;44.490;2024-01-16T03:20:26;26.90;;;12.93;;
85218;SDS011;75606;40.152;44.490;2024-01-16T03:22:52;31.83;;;14.65;;
85218;SDS011;75606;40.152;44.490;2024-01-16T03:25:18;32.00;;;13.27;;
85218;SDS011;75606;40.152;44.490;2024-01-16T03:27:44;32.13;;;14.02;;
85218;SDS011;75606;40.152;44.490;2024-01-16T03:30:10;36.15;;;16.70;;
85218;SDS011;75606;40.152;44.490;2024-01-16T03:32:36;40.13;;;16.48;;
85218;SDS011;75606;40.152;44.490;2024-01-16T03:35:02;36.75;;;15.95;;
85218;SDS011;75606;40.152;44.490;2024-01-16T03:37:28;40.17;;;18.33;;
85218;SDS011;75606;40.152;44.490;2024-01-16T03:39:54;46.58;;;20.83;;
85218;SDS011;75606;40.152;44.490;2024-01-16T03:42:20;38.63;;;16.70;;
85218;SDS011;75606;40.152;44.490;2024-01-16T03:44:46;37.72;;;14.88;;
85218;SDS011;75606;40.152;44.490;2024-01-16T03:47:11;38.90;;;16.85;;
85218;SDS011;75606;40.152;44.490;2024-01-16T03:49:37;36.13;;;13.63;;
85218;SDS011;75606;40.152;44.490;2024-01-16T03:52:03;41.53;;;16.92;;
85218;SDS011;75606;40.152;44.490;2024-01-16T03:54:29;34.00;;;13.65;;
85218;SDS011;75606;40.152;44.490;2024-01-16T03:56:54;34.28;;;14.32;;
85218;SDS011;75606;40.152;44.490;2024-01-16T03:59:20;45.40;;;20.00;;
85218;SDS011;75606;40.152;44.490;2024-01-16T04:01:46;42.53;;;17.67;;
85218;SDS011;75606;40.152;44.490;2024-01-16T04:04:13;42.17;;;16.42;;
85218;SDS011;75606;40.152;44.490;2024-01-16T04:06:38;48.80;;;21.13;;
85218;SDS011;75606;40.152;44.490;2024-01-16T04:09:05;34.00;;;14.15;;
85218;SDS011;75606;40.152;44.490;2024-01-16T04:11:31;32.60;;;13.20;;
85218;SDS011;75606;40.152;44.490;2024-01-16T04:13:56;40.65;;;16.15;;
85218;SDS011;75606;40.152;44.490;2024-01-16T04:16:22;39.33;;;14.82;;
85218;SDS011;75606;40.152;44.490;2024-01-16T04:18:48;43.78;;;19.30;;
85218;SDS011;75606;40.152;44.490;2024-01-16T04:21:13;52.22;;;20.40;;
85218;SDS011;75606;40.152;44.490;2024-01-16T04:23:40;50.67;;;21.63;;
85218;SDS011;75606;40.152;44.490;2024-01-16T04:26:07;52.38;;;20.73;;
85218;SDS011;75606;40.152;44.490;2024-01-16T04:28:33;48.67;;;21.08;;
85218;SDS011;75606;40.152;44.490;2024-01-16T04:31:00;42.70;;;17.92;;
85218;SDS011;75606;40.152;44.490;2024-01-16T04:33:26;68.55;;;29.20;;
85218;SDS011;75606;40.152;44.490;2024-01-16T04:35:52;52.80;;;22.50;;
85218;SDS011;75606;40.152;44.490;2024-01-16T04:38:18;59.53;;;24.75;;
85218;SDS011;75606;40.152;44.490;2024-01-16T04:40:44;57.35;;;23.25;;
85218;SDS011;75606;40.152;44.490;2024-01-16T04:43:09;47.60;;;19.10;;
85218;SDS011;75606;40.152;44.490;2024-01-16T04:45:35;52.28;;;21.00;;
85218;SDS011;75606;40.152;44.490;2024-01-16T04:48:01;39.65;;;17.20;;
85218;SDS011;75606;40.152;44.490;2024-01-16T04:50:28;52.35;;;22.10;;
85218;SDS011;75606;40.152;44.490;2024-01-16T04:52:57;39.70;;;17.10;;
85218;SDS011;75606;40.152;44.490;2024-01-16T04:55:25;35.13;;;14.35;;
85218;SDS011;75606;40.152;44.490;2024-01-16T04:57:52;33.97;;;13.90;;
85218;SDS011;75606;40.152;44.490;2024-01-16T05:00:18;35.20;;;15.32;;
85218;SDS011;75606;40.152;44.490;2024-01-16T05:02:43;30.13;;;14.02;;
85218;SDS011;75606;40.152;44.490;2024-01-16T05:05:09;33.58;;;13.35;;
85218;SDS011;75606;40.152;44.490;2024-01-16T05:07:35;37.13;;;15.07;;
85218;SDS011;75606;40.152;44.490;2024-01-16T05:10:01;32.20;;;12.55;;
85218;SDS011;75606;40.152;44.490;2024-01-16T05:12:26;45.25;;;16.85;;
85218;SDS011;75606;40.152;44.490;2024-01-16T05:14:54;47.20;;;18.00;;
85218;SDS011;75606;40.152;44.490;2024-01-16T05:17:20;54.38;;;23.17;;
85218;SDS011;75606;40.152;44.490;2024-01-16T05:19:46;61.85;;;26.10;;
85218;SDS011;75606;40.152;44.490;2024-01-16T05:22:11;59.78;;;23.95;;
85218;SDS011;75606;40.152;44.490;2024-01-16T05:24:37;46.45;;;18.30;;
85218;SDS011;75606;40.152;44.490;2024-01-16T05:27:02;56.40;;;25.55;;
85218;SDS011;75606;40.152;44.490;2024-01-16T05:29:29;44.33;;;19.10;;
85218;SDS011;75606;40.152;44.490;2024-01-16T05:31:56;50.33;;;21.25;;
85218;SDS011;75606;40.152;44.490;2024-01-16T05:34:22;42.13;;;16.88;;
85218;SDS011;75606;40.152;44.490;2024-01-16T05:36:48;43.63;;;17.58;;
85218;SDS011;75606;40.152;44.490;2024-01-16T05:39:13;37.97;;;16.27;;
85218;SDS011;75606;40.152;44.490;2024-01-16T05:41:40;51.92;;;20.55;;
85218;SDS011;75606;40.152;44.490;2024-01-16T05:44:05;43.42;;;18.33;;
85218;SDS011;75606;40.152;44.490;2024-01-16T05:46:31;37.35;;;15.52;;
85218;SDS011;75606;40.152;44.490;2024-01-16T05:48:57;42.17;;;17.27;;
85218;SDS011;75606;40.152;44.490;2024-01-16T05:51:37;43.08;;;21.00;;
85218;SDS011;75606;40.152;44.490;2024-01-16T05:54:03;38.22;;;16.15;;
85218;SDS011;75606;40.152;44.490;2024-01-16T05:56:29;47.10;;;19.85;;
85218;SDS011;75606;40.152;44.490;2024-01-16T05:58:56;57.35;;;23.27;;
85218;SDS011;75606;40.152;44.490;2024-01-16T06:01:21;51.83;;;23.27;;
85218;SDS011;75606;40.152;44.490;2024-01-16T06:03:47;42.88;;;17.25;;
85218;SDS011;75606;40.152;44.490;2024-01-16T06:06:14;51.20;;;22.08;;
85218;SDS011;75606;40.152;44.490;2024-01-16T06:08:39;59.00;;;23.77;;
85218;SDS011;75606;40.152;44.490;2024-01-16T06:11:06;53.85;;;24.55;;
85218;SDS011;75606;40.152;44.490;2024-01-16T06:13:32;40.65;;;19.77;;
85218;SDS011;75606;40.152;44.490;2024-01-16T06:15:58;51.38;;;22.15;;
85218;SDS011;75606;40.152;44.490;2024-01-16T06:18:23;47.78;;;20.55;;
85218;SDS011;75606;40.152;44.490;2024-01-16T06:20:49;46.30;;;19.35;;
85218;SDS011;75606;40.152;44.490;2024-01-16T06:23:14;43.80;;;19.45;;
85218;SDS011;75606;40.152;44.490;2024-01-16T06:25:40;46.53;;;20.50;;
85218;SDS011;75606;40.152;44.490;2024-01-16T06:28:06;45.60;;;19.73;;
85218;SDS011;75606;40.152;44.490;2024-01-16T06:30:32;50.47;;;22.30;;
85218;SDS011;75606;40.152;44.490;2024-01-16T06:32:58;49.25;;;22.35;;
85218;SDS011;75606;40.152;44.490;2024-01-16T06:35:23;52.85;;;22.33;;
85218;SDS011;75606;40.152;44.490;2024-01-16T06:37:49;44.70;;;20.10;;
85218;SDS011;75606;40.152;44.490;2024-01-16T06:40:15;53.55;;;24.48;;
85218;SDS011;75606;40.152;44.490;2024-01-16T06:42:40;59.17;;;24.25;;
85218;SDS011;75606;40.152;44.490;2024-01-16T06:45:06;60.08;;;24.73;;
85218;SDS011;75606;40.152;44.490;2024-01-16T06:47:32;55.55;;;21.55;;
85218;SDS011;75606;40.152;44.490;2024-01-16T06:49:58;50.55;;;21.23;;
85218;SDS011;75606;40.152;44.490;2024-01-16T06:52:23;53.42;;;21.23;;
85218;SDS011;75606;40.152;44.490;2024-01-16T06:54:50;49.88;;;22.38;;
85218;SDS011;75606;40.152;44.490;2024-01-16T06:57:15;62.45;;;25.73;;
85218;SDS011;75606;40.152;44.490;2024-01-16T06:59:41;56.25;;;23.30;;
85218;SDS011;75606;40.152;44.490;2024-01-16T07:02:07;63.50;;;27.10;;
85218;SDS011;75606;40.152;44.490;2024-01-16T07:04:33;55.72;;;23.63;;
85218;SDS011;75606;40.152;44.490;2024-01-16T07:06:59;50.75;;;23.70;;
85218;SDS011;75606;40.152;44.490;2024-01-16T07:09:25;60.17;;;27.52;;
85218;SDS011;75606;40.152;44.490;2024-01-16T07:11:52;70.13;;;29.88;;
85218;SDS011;75606;40.152;44.490;2024-01-16T07:14:19;51.25;;;23.73;;
85218;SDS011;75606;40.152;44.490;2024-01-16T07:16:45;58.67;;;27.52;;
85218;SDS011;75606;40.152;44.490;2024-01-16T07:19:11;54.78;;;26.17;;
85218;SDS011;75606;40.152;44.490;2024-01-16T07:21:39;54.97;;;26.52;;
85218;SDS011;75606;40.152;44.490;2024-01-16T07:24:05;64.45;;;32.50;;
85218;SDS011;75606;40.152;44.490;2024-01-16T07:26:31;50.58;;;25.52;;
85218;SDS011;75606;40.152;44.490;2024-01-16T07:28:56;52.13;;;26.27;;
85218;SDS011;75606;40.152;44.490;2024-01-16T07:31:23;65.55;;;32.05;;
85218;SDS011;75606;40.152;44.490;2024-01-16T07:33:48;62.42;;;29.65;;
85218;SDS011;75606;40.152;44.490;2024-01-16T07:36:14;55.70;;;26.58;;
85218;SDS011;75606;40.152;44.490;2024-01-16T07:38:40;54.95;;;27.77;;
85218;SDS011;75606;40.152;44.490;2024-01-16T07:41:05;91.55;;;42.55;;
85218;SDS011;75606;40.152;44.490;2024-01-16T07:43:31;57.45;;;28.80;;
85218;SDS011;75606;40.152;44.490;2024-01-16T07:45:57;92.22;;;43.97;;
85218;SDS011;75606;40.152;44.490;2024-01-16T07:48:23;94.45;;;41.45;;
85218;SDS011;75606;40.152;44.490;2024-01-16T07:50:49;105.47;;;46.78;;
85218;SDS011;75606;40.152;44.490;2024-01-16T07:53:15;82.22;;;36.85;;
85218;SDS011;75606;40.152;44.490;2024-01-16T07:55:41;95.82;;;45.28;;
85218;SDS011;75606;40.152;44.490;2024-01-16T07:58:07;86.75;;;40.08;;
85218;SDS011;75606;40.152;44.490;2024-01-16T08:00:32;73.38;;;34.10;;
85218;SDS011;75606;40.152;44.490;2024-01-16T08:02:58;93.10;;;45.50;;
85218;SDS011;75606;40.152;44.490;2024-01-16T08:05:24;89.07;;;42.45;;
85218;SDS011;75606;40.152;44.490;2024-01-16T08:07:53;102.80;;;50.38;;
85218;SDS011;75606;40.152;44.490;2024-01-16T08:10:19;88.75;;;42.83;;
85218;SDS011;75606;40.152;44.490;2024-01-16T08:12:45;92.20;;;42.65;;
85218;SDS011;75606;40.152;44.490;2024-01-16T08:15:11;77.22;;;35.28;;
85218;SDS011;75606;40.152;44.490;2024-01-16T08:17:36;97.10;;;44.42;;
85218;SDS011;75606;40.152;44.490;2024-01-16T08:20:02;78.60;;;33.47;;
85218;SDS011;75606;40.152;44.490;2024-01-16T08:22:28;75.35;;;28.70;;
85218;SDS011;75606;40.152;44.490;2024-01-16T08:24:54;85.32;;;38.70;;
85218;SDS011;75606;40.152;44.490;2024-01-16T08:27:20;77.25;;;34.33;;
85218;SDS011;75606;40.152;44.490;2024-01-16T08:29:45;75.32;;;33.92;;
85218;SDS011;75606;40.152;44.490;2024-01-16T08:32:15;81.13;;;35.75;;
85218;SDS011;75606;40.152;44.490;2024-01-16T08:34:41;76.07;;;34.13;;
85218;SDS011;75606;40.152;44.490;2024-01-16T08:37:07;60.97;;;30.60;;
85218;SDS011;75606;40.152;44.490;2024-01-16T08:39:33;81.32;;;38.85;;
85218;SDS011;75606;40.152;44.490;2024-01-16T08:41:59;89.38;;;42.75;;
85218;SDS011;75606;40.152;44.490;2024-01-16T08:44:27;76.13;;;37.20;;
85218;SDS011;75606;40.152;44.490;2024-01-16T08:46:54;79.95;;;36.67;;
85218;SDS011;75606;40.152;44.490;2024-01-16T08:49:19;81.03;;;40.05;;
85218;SDS011;75606;40.152;44.490;2024-01-16T08:51:45;72.80;;;35.83;;
85218;SDS011;75606;40.152;44.490;2024-01-16T08:54:11;71.47;;;33.47;;
85218;SDS011;75606;40.152;44.490;2024-01-16T08:56:37;65.15;;;31.63;;
85218;SDS011;75606;40.152;44.490;2024-01-16T08:59:02;68.47;;;33.05;;
85218;SDS011;75606;40.152;44.490;2024-01-16T09:01:28;72.30;;;34.10;;
85218;SDS011;75606;40.152;44.490;2024-01-16T09:03:53;68.60;;;32.50;;
85218;SDS011;75606;40.152;44.490;2024-01-16T09:06:19;50.88;;;24.92;;
85218;SDS011;75606;40.152;44.490;2024-01-16T09:08:45;54.47;;;25.77;;
85218;SDS011;75606;40.152;44.490;2024-01-16T09:11:11;59.80;;;26.60;;
85218;SDS011;75606;40.152;44.490;2024-01-16T09:13:37;68.10;;;33.75;;
85218;SDS011;75606;40.152;44.490;2024-01-16T09:16:03;62.35;;;31.08;;
85218;SDS011;75606;40.152;44.490;2024-01-16T09:18:29;68.32;;;29.45;;
85218;SDS011;75606;40.152;44.490;2024-01-16T09:20:55;47.67;;;23.27;;
85218;SDS011;75606;40.152;44.490;2024-01-16T09:23:22;49.63;;;23.45;;
85218;SDS011;75606;40.152;44.490;2024-01-16T09:25:47;49.45;;;23.83;;
85218;SDS011;75606;40.152;44.490;2024-01-16T09:28:14;61.42;;;31.27;;
85218;SDS011;75606;40.152;44.490;2024-01-16T09:30:41;62.00;;;30.30;;
85218;SDS011;75606;40.152;44.490;2024-01-16T09:33:07;60.03;;;28.58;;
85218;SDS011;75606;40.152;44.490;2024-01-16T09:35:34;68.22;;;31.50;;
85218;SDS011;75606;40.152;44.490;2024-01-16T09:38:00;58.67;;;27.45;;
85218;SDS011;75606;40.152;44.490;2024-01-16T09:40:26;49.72;;;25.27;;
85218;SDS011;75606;40.152;44.490;2024-01-16T09:42:51;56.90;;;27.88;;
85218;SDS011;75606;40.152;44.490;2024-01-16T09:45:20;60.08;;;28.17;;
85218;SDS011;75606;40.152;44.490;2024-01-16T09:47:49;71.00;;;30.45;;
85218;SDS011;75606;40.152;44.490;2024-01-16T09:50:16;58.35;;;29.77;;
85218;SDS011;75606;40.152;44.490;2024-01-16T09:52:43;55.55;;;29.63;;
85218;SDS011;75606;40.152;44.490;2024-01-16T09:55:12;46.72;;;25.60;;
85218;SDS011;75606;40.152;44.490;2024-01-16T09:57:39;54.58;;;29.77;;
85218;SDS011;75606;40.152;44.490;2024-01-16T10:00:06;53.08;;;30.83;;
85218;SDS011;75606;40.152;44.490;2024-01-16T10:02:37;52.88;;;32.92;;
85218;SDS011;75606;40.152;44.490;2024-01-16T10:05:07;39.92;;;24.77;;
85218;SDS011;75606;40.152;44.490;2024-01-16T10:07:38;56.13;;;30.10;;
85218;SDS011;75606;40.152;44.490;2024-01-16T10:10:04;51.17;;;31.23;;
85218;SDS011;75606;40.152;44.490;2024-01-16T10:12:31;52.10;;;31.92;;
85218;SDS011;75606;40.152;44.490;2024-01-16T10:14:56;59.30;;;35.63;;
85218;SDS011;75606;40.152;44.490;2024-01-16T10:17:22;44.78;;;27.02;;
85218;SDS011;75606;40.152;44.490;2024-01-16T10:20:00;48.90;;;30.55;;
85218;SDS011;75606;40.152;44.490;2024-01-16T10:22:29;43.58;;;27.48;;
85218;SDS011;75606;40.152;44.490;2024-01-16T10:25:08;54.65;;;30.70;;
85218;SDS011;75606;40.152;44.490;2024-01-16T10:27:35;57.33;;;35.83;;
85218;SDS011;75606;40.152;44.490;2024-01-16T10:30:01;35.40;;;25.33;;
85218;SDS011;75606;40.152;44.490;2024-01-16T10:32:33;50.42;;;30.73;;
85218;SDS011;75606;40.152;44.490;2024-01-16T10:35:09;49.58;;;32.10;;
85218;SDS011;75606;40.152;44.490;2024-01-16T10:37:41;52.63;;;30.50;;
85218;SDS011;75606;40.152;44.490;2024-01-16T10:40:08;46.90;;;28.67;;
85218;SDS011;75606;40.152;44.490;2024-01-16T10:42:34;53.92;;;33.40;;
85218;SDS011;75606;40.152;44.490;2024-01-16T10:44:59;50.85;;;33.05;;
85218;SDS011;75606;40.152;44.490;2024-01-16T10:47:26;40.00;;;28.92;;
85218;SDS011;75606;40.152;44.490;2024-01-16T10:49:51;33.67;;;23.98;;
85218;SDS011;75606;40.152;44.490;2024-01-16T10:52:17;47.60;;;32.53;;
85218;SDS011;75606;40.152;44.490;2024-01-16T10:54:43;54.92;;;35.45;;
85218;SDS011;75606;40.152;44.490;2024-01-16T10:57:10;54.53;;;33.60;;
85218;SDS011;75606;40.152;44.490;2024-01-16T11:02:11;48.40;;;29.77;;
85218;SDS011;75606;40.152;44.490;2024-01-16T11:04:40;54.38;;;31.75;;
85218;SDS011;75606;40.152;44.490;2024-01-16T11:07:08;44.25;;;29.02;;
85218;SDS011;75606;40.152;44.490;2024-01-16T11:09:34;58.28;;;35.60;;
85218;SDS011;75606;40.152;44.490;2024-01-16T11:12:00;55.35;;;32.28;;
85218;SDS011;75606;40.152;44.490;2024-01-16T11:14:26;61.60;;;36.53;;
85218;SDS011;75606;40.152;44.490;2024-01-16T11:16:52;50.20;;;32.65;;
85218;SDS011;75606;40.152;44.490;2024-01-16T11:19:18;55.50;;;32.20;;
85218;SDS011;75606;40.152;44.490;2024-01-16T11:21:45;36.63;;;23.05;;
85218;SDS011;75606;40.152;44.490;2024-01-16T11:24:11;37.70;;;23.08;;
85218;SDS011;75606;40.152;44.490;2024-01-16T11:26:39;41.88;;;26.33;;
85218;SDS011;75606;40.152;44.490;2024-01-16T11:31:53;57.63;;;36.83;;
85218;SDS011;75606;40.152;44.490;2024-01-16T11:37:27;53.45;;;31.15;;
85218;SDS011;75606;40.152;44.490;2024-01-16T11:42:51;62.13;;;33.25;;
85218;SDS011;75606;40.152;44.490;2024-01-16T11:48:09;50.60;;;30.13;;
85218;SDS011;75606;40.152;44.490;2024-01-16T11:50:39;58.45;;;31.33;;
85218;SDS011;75606;40.152;44.490;2024-01-16T11:53:06;48.28;;;24.98;;
85218;SDS011;75606;40.152;44.490;2024-01-16T11:55:33;47.47;;;25.65;;
85218;SDS011;75606;40.152;44.490;2024-01-16T12:00:44;42.22;;;22.10;;
85218;SDS011;75606;40.152;44.490;2024-01-16T12:03:11;42.33;;;19.70;;
85218;SDS011;75606;40.152;44.490;2024-01-16T12:05:41;48.83;;;25.33;;
85218;SDS011;75606;40.152;44.490;2024-01-16T12:08:09;39.65;;;20.90;;
85218;SDS011;75606;40.152;44.490;2024-01-16T12:10:37;34.53;;;19.08;;
85218;SDS011;75606;40.152;44.490;2024-01-16T12:13:12;37.22;;;20.15;;
85218;SDS011;75606;40.152;44.490;2024-01-16T12:15:37;49.72;;;26.65;;
85218;SDS011;75606;40.152;44.490;2024-01-16T12:18:03;32.10;;;19.33;;
85218;SDS011;75606;40.152;44.490;2024-01-16T12:20:29;41.13;;;21.27;;
85218;SDS011;75606;40.152;44.490;2024-01-16T12:22:57;37.15;;;17.95;;
85218;SDS011;75606;40.152;44.490;2024-01-16T12:25:25;37.35;;;20.42;;
85218;SDS011;75606;40.152;44.490;2024-01-16T12:27:58;46.40;;;22.90;;
85218;SDS011;75606;40.152;44.490;2024-01-16T12:30:28;41.33;;;21.40;;
85218;SDS011;75606;40.152;44.490;2024-01-16T12:33:07;41.78;;;20.58;;
85218;SDS011;75606;40.152;44.490;2024-01-16T12:35:37;42.67;;;22.25;;
85218;SDS011;75606;40.152;44.490;2024-01-16T12:38:04;40.83;;;22.10;;
85218;SDS011;75606;40.152;44.490;2024-01-16T12:40:31;37.13;;;18.77;;
85218;SDS011;75606;40.152;44.490;2024-01-16T12:42:57;33.50;;;16.58;;
85218;SDS011;75606;40.152;44.490;2024-01-16T12:45:23;36.40;;;17.17;;
85218;SDS011;75606;40.152;44.490;2024-01-16T12:47:52;41.75;;;22.20;;
85218;SDS011;75606;40.152;44.490;2024-01-16T12:50:25;42.00;;;18.92;;
85218;SDS011;75606;40.152;44.490;2024-01-16T12:53:04;28.00;;;14.02;;
85218;SDS011;75606;40.152;44.490;2024-01-16T12:55:34;34.97;;;16.33;;
85218;SDS011;75606;40.152;44.490;2024-01-16T12:58:20;41.33;;;17.75;;
85218;SDS011;75606;40.152;44.490;2024-01-16T13:00:50;43.35;;;18.90;;
85218;SDS011;75606;40.152;44.490;2024-01-16T13:03:17;38.60;;;18.50;;
85218;SDS011;75606;40.152;44.490;2024-01-16T13:05:44;34.80;;;16.35;;
85218;SDS011;75606;40.152;44.490;2024-01-16T13:08:17;30.10;;;13.40;;
85218;SDS011;75606;40.152;44.490;2024-01-16T13:10:44;36.42;;;17.88;;
85218;SDS011;75606;40.152;44.490;2024-01-16T13:13:16;24.77;;;13.02;;
85218;SDS011;75606;40.152;44.490;2024-01-16T13:15:46;27.17;;;12.60;;
85218;SDS011;75606;40.152;44.490;2024-01-16T13:18:21;25.00;;;12.82;;
85218;SDS011;75606;40.152;44.490;2024-01-16T13:20:49;28.40;;;13.57;;
85218;SDS011;75606;40.152;44.490;2024-01-16T13:23:14;33.47;;;15.25;;
85218;SDS011;75606;40.152;44.490;2024-01-16T13:25:42;22.92;;;11.25;;
85218;SDS011;75606;40.152;44.490;2024-01-16T13:28:08;28.83;;;13.05;;
85218;SDS011;75606;40.152;44.490;2024-01-16T13:30:37;22.40;;;10.38;;
85218;SDS011;75606;40.152;44.490;2024-01-16T13:33:03;27.08;;;12.88;;
85218;SDS011;75606;40.152;44.490;2024-01-16T13:35:30;27.05;;;12.70;;
85218;SDS011;75606;40.152;44.490;2024-01-16T13:37:56;24.80;;;12.45;;
85218;SDS011;75606;40.152;44.490;2024-01-16T13:40:21;42.17;;;17.83;;
85218;SDS011;75606;40.152;44.490;2024-01-16T13:42:47;38.88;;;17.67;;
85218;SDS011;75606;40.152;44.490;2024-01-16T13:45:14;29.00;;;13.65;;
85218;SDS011;75606;40.152;44.490;2024-01-16T13:47:39;34.58;;;15.95;;
85218;SDS011;75606;40.152;44.490;2024-01-16T13:50:06;36.83;;;18.63;;
85218;SDS011;75606;40.152;44.490;2024-01-16T13:52:35;32.70;;;15.17;;
85218;SDS011;75606;40.152;44.490;2024-01-16T13:55:01;37.90;;;17.77;;
85218;SDS011;75606;40.152;44.490;2024-01-16T13:57:30;35.50;;;16.90;;
85218;SDS011;75606;40.152;44.490;2024-01-16T13:59:56;33.90;;;17.67;;
85218;SDS011;75606;40.152;44.490;2024-01-16T14:02:23;41.35;;;19.95;;
85218;SDS011;75606;40.152;44.490;2024-01-16T14:04:49;40.75;;;18.73;;
85218;SDS011;75606;40.152;44.490;2024-01-16T14:07:14;30.15;;;16.02;;
85218;SDS011;75606;40.152;44.490;2024-01-16T14:09:41;45.63;;;21.30;;
85218;SDS011;75606;40.152;44.490;2024-01-16T14:12:07;43.50;;;18.92;;
85218;SDS011;75606;40.152;44.490;2024-01-16T14:14:34;37.22;;;18.60;;
85218;SDS011;75606;40.152;44.490;2024-01-16T14:17:00;41.92;;;19.88;;
85218;SDS011;75606;40.152;44.490;2024-01-16T14:19:26;32.97;;;14.70;;
85218;SDS011;75606;40.152;44.490;2024-01-16T14:21:53;34.05;;;17.45;;
85218;SDS011;75606;40.152;44.490;2024-01-16T14:24:18;29.20;;;12.65;;